sensor_id;sensor_type;location;lat;lon;timestamp;P1;durP1;ratioP1;P2;durP2;ratioP2
11596;SDS011;5854;48.072;16.286;2022-11-03T00:01:30;5.18;;;1.85;;
11596;SDS011;5854;48.072;16.286;2022-11-03T00:03:58;6.55;;;1.85;;
11596;SDS011;5854;48.072;16.286;2022-11-03T00:06:25;7.03;;;1.30;;
11596;SDS011;5854;48.072;16.286;2022-11-03T00:08:52;6.53;;;1.50;;
11596;SDS011;5854;48.072;16.286;2022-11-03T00:11:23;7.63;;;1.27;;
11596;SDS011;5854;48.072;16.286;2022-11-03T00:13:55;4.63;;;1.45;;
11596;SDS011;5854;48.072;16.286;2022-11-03T00:16:23;2.58;;;1.10;;
11596;SDS011;5854;48.072;16.286;2022-11-03T00:18:50;6.10;;;1.50;;
11596;SDS011;5854;48.072;16.286;2022-11-03T00:21:19;5.75;;;1.63;;
11596;SDS011;5854;48.072;16.286;2022-11-03T00:23:47;3.20;;;1.42;;
11596;SDS011;5854;48.072;16.286;2022-11-03T00:26:15;2.53;;;1.25;;
11596;SDS011;5854;48.072;16.286;2022-11-03T00:28:45;5.47;;;1.75;;
11596;SDS011;5854;48.072;16.286;2022-11-03T00:31:17;3.95;;;1.63;;
11596;SDS011;5854;48.072;16.286;2022-11-03T00:33:46;3.83;;;1.67;;
11596;SDS011;5854;48.072;16.286;2022-11-03T00:36:15;2.47;;;1.20;;
11596;SDS011;5854;48.072;16.286;2022-11-03T00:38:44;4.68;;;1.80;;
11596;SDS011;5854;48.072;16.286;2022-11-03T00:41:12;6.38;;;1.65;;
11596;SDS011;5854;48.072;16.286;2022-11-03T00:43:42;2.83;;;1.30;;
11596;SDS011;5854;48.072;16.286;2022-11-03T00:46:09;5.50;;;1.60;;
11596;SDS011;5854;48.072;16.286;2022-11-03T00:48:38;2.33;;;1.20;;
11596;SDS011;5854;48.072;16.286;2022-11-03T00:51:07;2.45;;;1.20;;
11596;SDS011;5854;48.072;16.286;2022-11-03T00:53:37;4.65;;;1.10;;
11596;SDS011;5854;48.072;16.286;2022-11-03T00:56:08;3.60;;;1.13;;
11596;SDS011;5854;48.072;16.286;2022-11-03T00:58:41;4.22;;;1.67;;
11596;SDS011;5854;48.072;16.286;2022-11-03T01:01:09;3.58;;;1.35;;
11596;SDS011;5854;48.072;16.286;2022-11-03T01:03:40;7.40;;;2.45;;
11596;SDS011;5854;48.072;16.286;2022-11-03T01:06:30;3.97;;;1.75;;
11596;SDS011;5854;48.072;16.286;2022-11-03T01:09:15;3.97;;;1.25;;
11596;SDS011;5854;48.072;16.286;2022-11-03T01:11:44;5.88;;;1.55;;
11596;SDS011;5854;48.072;16.286;2022-11-03T01:14:21;3.88;;;1.33;;
11596;SDS011;5854;48.072;16.286;2022-11-03T01:16:49;5.65;;;2.25;;
11596;SDS011;5854;48.072;16.286;2022-11-03T01:19:18;2.40;;;1.40;;
11596;SDS011;5854;48.072;16.286;2022-11-03T01:21:45;4.10;;;1.42;;
11596;SDS011;5854;48.072;16.286;2022-11-03T01:24:14;3.95;;;1.20;;
11596;SDS011;5854;48.072;16.286;2022-11-03T01:26:41;5.47;;;1.45;;
11596;SDS011;5854;48.072;16.286;2022-11-03T01:29:08;4.30;;;1.20;;
11596;SDS011;5854;48.072;16.286;2022-11-03T01:31:35;7.05;;;1.40;;
11596;SDS011;5854;48.072;16.286;2022-11-03T01:34:03;3.30;;;1.25;;
11596;SDS011;5854;48.072;16.286;2022-11-03T01:36:33;2.30;;;1.30;;
11596;SDS011;5854;48.072;16.286;2022-11-03T01:39:00;2.85;;;1.50;;
11596;SDS011;5854;48.072;16.286;2022-11-03T01:41:27;5.30;;;1.30;;
11596;SDS011;5854;48.072;16.286;2022-11-03T01:47:01;2.08;;;1.48;;
11596;SDS011;5854;48.072;16.286;2022-11-03T01:49:35;5.30;;;1.30;;
11596;SDS011;5854;48.072;16.286;2022-11-03T01:52:10;5.80;;;1.67;;
11596;SDS011;5854;48.072;16.286;2022-11-03T01:54:44;4.72;;;1.40;;
11596;SDS011;5854;48.072;16.286;2022-11-03T01:57:14;1.65;;;1.40;;
11596;SDS011;5854;48.072;16.286;2022-11-03T01:59:46;9.02;;;1.35;;
11596;SDS011;5854;48.072;16.286;2022-11-03T02:02:14;2.35;;;1.55;;
11596;SDS011;5854;48.072;16.286;2022-11-03T02:04:42;9.25;;;1.90;;
11596;SDS011;5854;48.072;16.286;2022-11-03T02:07:12;6.57;;;2.00;;
11596;SDS011;5854;48.072;16.286;2022-11-03T02:09:48;4.85;;;1.65;;
11596;SDS011;5854;48.072;16.286;2022-11-03T02:12:15;3.63;;;1.52;;
11596;SDS011;5854;48.072;16.286;2022-11-03T02:14:48;10.70;;;2.00;;
11596;SDS011;5854;48.072;16.286;2022-11-03T02:17:18;4.07;;;1.23;;
11596;SDS011;5854;48.072;16.286;2022-11-03T02:19:48;3.50;;;1.23;;
11596;SDS011;5854;48.072;16.286;2022-11-03T02:22:28;4.55;;;1.58;;
11596;SDS011;5854;48.072;16.286;2022-11-03T02:25:35;5.38;;;1.65;;
11596;SDS011;5854;48.072;16.286;2022-11-03T02:28:06;4.47;;;1.70;;
11596;SDS011;5854;48.072;16.286;2022-11-03T02:30:35;13.18;;;1.95;;
11596;SDS011;5854;48.072;16.286;2022-11-03T02:33:10;2.60;;;1.30;;
11596;SDS011;5854;48.072;16.286;2022-11-03T02:35:50;2.97;;;1.35;;
11596;SDS011;5854;48.072;16.286;2022-11-03T02:38:23;3.72;;;1.60;;
11596;SDS011;5854;48.072;16.286;2022-11-03T02:40:55;2.63;;;1.33;;
11596;SDS011;5854;48.072;16.286;2022-11-03T02:43:26;3.92;;;1.67;;
11596;SDS011;5854;48.072;16.286;2022-11-03T02:45:54;4.80;;;1.60;;
11596;SDS011;5854;48.072;16.286;2022-11-03T02:48:21;4.70;;;1.80;;
11596;SDS011;5854;48.072;16.286;2022-11-03T02:50:49;5.30;;;1.83;;
11596;SDS011;5854;48.072;16.286;2022-11-03T02:53:16;3.22;;;1.50;;
11596;SDS011;5854;48.072;16.286;2022-11-03T02:55:47;2.40;;;1.42;;
11596;SDS011;5854;48.072;16.286;2022-11-03T02:58:24;5.43;;;1.70;;
11596;SDS011;5854;48.072;16.286;2022-11-03T03:00:57;3.40;;;1.70;;
11596;SDS011;5854;48.072;16.286;2022-11-03T03:03:30;3.42;;;1.75;;
11596;SDS011;5854;48.072;16.286;2022-11-03T03:06:01;3.35;;;1.45;;
11596;SDS011;5854;48.072;16.286;2022-11-03T03:08:33;12.93;;;2.05;;
11596;SDS011;5854;48.072;16.286;2022-11-03T03:11:07;5.88;;;1.33;;
11596;SDS011;5854;48.072;16.286;2022-11-03T03:16:05;3.65;;;1.80;;
11596;SDS011;5854;48.072;16.286;2022-11-03T03:18:40;3.92;;;1.23;;
11596;SDS011;5854;48.072;16.286;2022-11-03T03:21:15;3.22;;;1.52;;
11596;SDS011;5854;48.072;16.286;2022-11-03T03:23:47;7.72;;;1.73;;
11596;SDS011;5854;48.072;16.286;2022-11-03T03:26:24;13.38;;;2.30;;
11596;SDS011;5854;48.072;16.286;2022-11-03T03:28:55;4.25;;;1.77;;
11596;SDS011;5854;48.072;16.286;2022-11-03T03:31:25;5.15;;;2.08;;
11596;SDS011;5854;48.072;16.286;2022-11-03T03:33:55;1.90;;;1.75;;
11596;SDS011;5854;48.072;16.286;2022-11-03T03:36:23;4.72;;;1.70;;
11596;SDS011;5854;48.072;16.286;2022-11-03T03:38:52;4.55;;;2.20;;
11596;SDS011;5854;48.072;16.286;2022-11-03T03:41:27;4.90;;;1.88;;
11596;SDS011;5854;48.072;16.286;2022-11-03T03:43:58;8.05;;;2.30;;
11596;SDS011;5854;48.072;16.286;2022-11-03T03:46:30;2.50;;;1.67;;
11596;SDS011;5854;48.072;16.286;2022-11-03T03:49:00;4.65;;;1.63;;
11596;SDS011;5854;48.072;16.286;2022-11-03T03:51:28;10.93;;;1.50;;
11596;SDS011;5854;48.072;16.286;2022-11-03T03:53:57;8.63;;;1.40;;
11596;SDS011;5854;48.072;16.286;2022-11-03T03:56:25;8.20;;;2.20;;
11596;SDS011;5854;48.072;16.286;2022-11-03T03:58:58;5.70;;;1.77;;
11596;SDS011;5854;48.072;16.286;2022-11-03T04:01:25;5.80;;;1.83;;
11596;SDS011;5854;48.072;16.286;2022-11-03T04:03:52;5.85;;;1.75;;
11596;SDS011;5854;48.072;16.286;2022-11-03T04:06:19;5.22;;;2.10;;
11596;SDS011;5854;48.072;16.286;2022-11-03T04:08:46;5.25;;;2.08;;
11596;SDS011;5854;48.072;16.286;2022-11-03T04:11:13;5.10;;;2.00;;
11596;SDS011;5854;48.072;16.286;2022-11-03T04:14:08;5.25;;;1.80;;
11596;SDS011;5854;48.072;16.286;2022-11-03T04:16:52;7.22;;;2.45;;
11596;SDS011;5854;48.072;16.286;2022-11-03T04:19:33;3.42;;;1.73;;
11596;SDS011;5854;48.072;16.286;2022-11-03T04:22:18;7.20;;;1.70;;
11596;SDS011;5854;48.072;16.286;2022-11-03T04:24:46;7.05;;;1.80;;
11596;SDS011;5854;48.072;16.286;2022-11-03T04:27:19;3.60;;;1.88;;
11596;SDS011;5854;48.072;16.286;2022-11-03T04:29:57;7.35;;;1.80;;
11596;SDS011;5854;48.072;16.286;2022-11-03T04:32:32;6.05;;;2.47;;
11596;SDS011;5854;48.072;16.286;2022-11-03T04:34:59;3.58;;;2.03;;
11596;SDS011;5854;48.072;16.286;2022-11-03T04:37:27;4.55;;;1.52;;
11596;SDS011;5854;48.072;16.286;2022-11-03T04:39:56;3.72;;;1.55;;
11596;SDS011;5854;48.072;16.286;2022-11-03T04:42:25;7.50;;;2.20;;
11596;SDS011;5854;48.072;16.286;2022-11-03T04:44:58;9.10;;;1.90;;
11596;SDS011;5854;48.072;16.286;2022-11-03T04:47:28;3.13;;;1.58;;
11596;SDS011;5854;48.072;16.286;2022-11-03T04:49:56;5.38;;;1.98;;
11596;SDS011;5854;48.072;16.286;2022-11-03T04:52:24;6.85;;;2.60;;
11596;SDS011;5854;48.072;16.286;2022-11-03T04:54:51;6.10;;;1.60;;
11596;SDS011;5854;48.072;16.286;2022-11-03T04:57:19;6.75;;;2.13;;
11596;SDS011;5854;48.072;16.286;2022-11-03T04:59:46;4.75;;;1.58;;
11596;SDS011;5854;48.072;16.286;2022-11-03T05:02:19;4.32;;;2.03;;
11596;SDS011;5854;48.072;16.286;2022-11-03T05:04:47;4.50;;;2.22;;
11596;SDS011;5854;48.072;16.286;2022-11-03T05:07:19;5.90;;;2.13;;
11596;SDS011;5854;48.072;16.286;2022-11-03T05:09:51;7.43;;;2.22;;
11596;SDS011;5854;48.072;16.286;2022-11-03T05:12:19;4.07;;;2.72;;
11596;SDS011;5854;48.072;16.286;2022-11-03T05:14:47;3.38;;;2.22;;
11596;SDS011;5854;48.072;16.286;2022-11-03T05:17:20;9.77;;;2.80;;
11596;SDS011;5854;48.072;16.286;2022-11-03T05:19:50;10.52;;;2.63;;
11596;SDS011;5854;48.072;16.286;2022-11-03T05:22:21;10.57;;;2.42;;
11596;SDS011;5854;48.072;16.286;2022-11-03T05:24:55;6.20;;;2.40;;
11596;SDS011;5854;48.072;16.286;2022-11-03T05:27:26;8.95;;;2.67;;
11596;SDS011;5854;48.072;16.286;2022-11-03T05:29:54;5.95;;;2.40;;
11596;SDS011;5854;48.072;16.286;2022-11-03T05:32:27;8.85;;;1.88;;
11596;SDS011;5854;48.072;16.286;2022-11-03T05:34:57;6.97;;;3.67;;
11596;SDS011;5854;48.072;16.286;2022-11-03T05:37:26;7.20;;;3.40;;
11596;SDS011;5854;48.072;16.286;2022-11-03T05:39:55;10.32;;;4.97;;
11596;SDS011;5854;48.072;16.286;2022-11-03T05:42:30;8.98;;;3.50;;
11596;SDS011;5854;48.072;16.286;2022-11-03T05:45:01;8.75;;;2.90;;
11596;SDS011;5854;48.072;16.286;2022-11-03T05:47:35;9.48;;;2.30;;
11596;SDS011;5854;48.072;16.286;2022-11-03T05:50:10;8.07;;;2.20;;
11596;SDS011;5854;48.072;16.286;2022-11-03T05:52:44;6.15;;;2.75;;
11596;SDS011;5854;48.072;16.286;2022-11-03T05:55:21;5.60;;;2.95;;
11596;SDS011;5854;48.072;16.286;2022-11-03T05:57:55;4.75;;;2.22;;
11596;SDS011;5854;48.072;16.286;2022-11-03T06:00:28;10.20;;;2.40;;
11596;SDS011;5854;48.072;16.286;2022-11-03T06:03:00;6.60;;;2.67;;
11596;SDS011;5854;48.072;16.286;2022-11-03T06:05:28;4.80;;;2.30;;
11596;SDS011;5854;48.072;16.286;2022-11-03T06:07:59;8.57;;;2.88;;
11596;SDS011;5854;48.072;16.286;2022-11-03T06:10:30;5.70;;;2.65;;
11596;SDS011;5854;48.072;16.286;2022-11-03T06:13:01;8.27;;;3.58;;
11596;SDS011;5854;48.072;16.286;2022-11-03T06:15:33;5.47;;;2.35;;
11596;SDS011;5854;48.072;16.286;2022-11-03T06:18:07;10.05;;;3.08;;
11596;SDS011;5854;48.072;16.286;2022-11-03T06:20:40;7.45;;;2.30;;
11596;SDS011;5854;48.072;16.286;2022-11-03T06:23:09;4.00;;;2.20;;
11596;SDS011;5854;48.072;16.286;2022-11-03T06:25:40;4.27;;;2.30;;
11596;SDS011;5854;48.072;16.286;2022-11-03T06:28:10;11.05;;;2.97;;
11596;SDS011;5854;48.072;16.286;2022-11-03T06:30:43;6.70;;;2.72;;
11596;SDS011;5854;48.072;16.286;2022-11-03T06:33:30;10.65;;;2.63;;
11596;SDS011;5854;48.072;16.286;2022-11-03T06:36:05;9.68;;;3.05;;
11596;SDS011;5854;48.072;16.286;2022-11-03T06:44:18;6.18;;;2.58;;
11596;SDS011;5854;48.072;16.286;2022-11-03T06:54:54;8.18;;;3.22;;
11596;SDS011;5854;48.072;16.286;2022-11-03T11:53:21;4.00;;;2.10;;
11596;SDS011;5854;48.072;16.286;2022-11-03T11:58:28;4.53;;;2.00;;
11596;SDS011;5854;48.072;16.286;2022-11-03T12:01:03;4.30;;;1.73;;
11596;SDS011;5854;48.072;16.286;2022-11-03T12:03:47;3.15;;;1.52;;
11596;SDS011;5854;48.072;16.286;2022-11-03T12:06:30;1.75;;;1.20;;
11596;SDS011;5854;48.072;16.286;2022-11-03T12:39:54;7.70;;;2.38;;
11596;SDS011;5854;48.072;16.286;2022-11-03T12:47:50;1.00;;;0.85;;
11596;SDS011;5854;48.072;16.286;2022-11-03T13:05:59;6.72;;;2.67;;
11596;SDS011;5854;48.072;16.286;2022-11-03T13:18:55;6.43;;;3.65;;
11596;SDS011;5854;48.072;16.286;2022-11-03T13:35:16;6.60;;;3.60;;
11596;SDS011;5854;48.072;16.286;2022-11-03T13:37:44;7.88;;;3.88;;
11596;SDS011;5854;48.072;16.286;2022-11-03T13:40:12;6.30;;;3.85;;
11596;SDS011;5854;48.072;16.286;2022-11-03T13:48:02;5.25;;;3.88;;
11596;SDS011;5854;48.072;16.286;2022-11-03T13:50:57;4.95;;;2.90;;
11596;SDS011;5854;48.072;16.286;2022-11-03T13:53:24;4.45;;;2.33;;
11596;SDS011;5854;48.072;16.286;2022-11-03T13:55:53;30.35;;;4.05;;
11596;SDS011;5854;48.072;16.286;2022-11-03T13:58:27;7.18;;;3.75;;
11596;SDS011;5854;48.072;16.286;2022-11-03T14:00:58;7.38;;;3.17;;
11596;SDS011;5854;48.072;16.286;2022-11-03T14:11:38;6.45;;;3.50;;
11596;SDS011;5854;48.072;16.286;2022-11-03T14:14:23;11.07;;;3.40;;
11596;SDS011;5854;48.072;16.286;2022-11-03T14:16:50;5.13;;;2.80;;
11596;SDS011;5854;48.072;16.286;2022-11-03T14:19:17;6.53;;;4.35;;
11596;SDS011;5854;48.072;16.286;2022-11-03T14:21:47;7.07;;;3.25;;
11596;SDS011;5854;48.072;16.286;2022-11-03T14:24:15;7.15;;;3.40;;
11596;SDS011;5854;48.072;16.286;2022-11-03T14:26:44;12.88;;;3.60;;
11596;SDS011;5854;48.072;16.286;2022-11-03T14:29:11;5.10;;;3.70;;
11596;SDS011;5854;48.072;16.286;2022-11-03T14:31:38;5.30;;;3.78;;
11596;SDS011;5854;48.072;16.286;2022-11-03T14:34:05;9.68;;;3.58;;
11596;SDS011;5854;48.072;16.286;2022-11-03T14:36:33;3.95;;;3.38;;
11596;SDS011;5854;48.072;16.286;2022-11-03T14:39:00;11.88;;;3.88;;
11596;SDS011;5854;48.072;16.286;2022-11-03T14:41:27;7.25;;;3.90;;
11596;SDS011;5854;48.072;16.286;2022-11-03T14:47:04;5.00;;;3.63;;
11596;SDS011;5854;48.072;16.286;2022-11-03T14:49:37;10.25;;;3.85;;
11596;SDS011;5854;48.072;16.286;2022-11-03T14:52:05;8.93;;;4.00;;
11596;SDS011;5854;48.072;16.286;2022-11-03T14:54:33;8.38;;;3.90;;
11596;SDS011;5854;48.072;16.286;2022-11-03T14:57:01;8.15;;;4.45;;
11596;SDS011;5854;48.072;16.286;2022-11-03T14:59:29;6.53;;;3.85;;
11596;SDS011;5854;48.072;16.286;2022-11-03T15:01:57;10.82;;;3.47;;
11596;SDS011;5854;48.072;16.286;2022-11-03T15:04:25;4.70;;;3.67;;
11596;SDS011;5854;48.072;16.286;2022-11-03T15:06:53;10.27;;;3.80;;
11596;SDS011;5854;48.072;16.286;2022-11-03T15:09:20;4.47;;;4.03;;
11596;SDS011;5854;48.072;16.286;2022-11-03T15:11:47;9.93;;;3.95;;
11596;SDS011;5854;48.072;16.286;2022-11-03T15:14:14;8.18;;;3.50;;
11596;SDS011;5854;48.072;16.286;2022-11-03T15:16:41;8.73;;;4.13;;
11596;SDS011;5854;48.072;16.286;2022-11-03T15:19:11;5.55;;;3.80;;
11596;SDS011;5854;48.072;16.286;2022-11-03T15:21:38;6.35;;;3.47;;
11596;SDS011;5854;48.072;16.286;2022-11-03T15:24:05;4.38;;;3.97;;
11596;SDS011;5854;48.072;16.286;2022-11-03T15:26:32;5.97;;;3.97;;
11596;SDS011;5854;48.072;16.286;2022-11-03T15:28:59;10.68;;;4.10;;
11596;SDS011;5854;48.072;16.286;2022-11-03T15:31:26;11.18;;;4.40;;
11596;SDS011;5854;48.072;16.286;2022-11-03T15:33:53;5.40;;;4.90;;
11596;SDS011;5854;48.072;16.286;2022-11-03T15:36:22;9.23;;;3.78;;
11596;SDS011;5854;48.072;16.286;2022-11-03T15:38:49;6.90;;;4.00;;
11596;SDS011;5854;48.072;16.286;2022-11-03T15:41:16;5.93;;;5.07;;
11596;SDS011;5854;48.072;16.286;2022-11-03T15:43:44;8.55;;;4.05;;
11596;SDS011;5854;48.072;16.286;2022-11-03T15:46:13;8.23;;;4.75;;
11596;SDS011;5854;48.072;16.286;2022-11-03T15:48:42;11.00;;;5.22;;
11596;SDS011;5854;48.072;16.286;2022-11-03T15:51:10;6.45;;;5.07;;
11596;SDS011;5854;48.072;16.286;2022-11-03T15:53:39;9.45;;;5.53;;
11596;SDS011;5854;48.072;16.286;2022-11-03T15:56:07;7.85;;;5.15;;
11596;SDS011;5854;48.072;16.286;2022-11-03T15:58:34;8.57;;;5.57;;
11596;SDS011;5854;48.072;16.286;2022-11-03T16:01:02;14.55;;;7.53;;
11596;SDS011;5854;48.072;16.286;2022-11-03T16:03:29;10.05;;;5.55;;
11596;SDS011;5854;48.072;16.286;2022-11-03T16:05:56;12.50;;;5.47;;
11596;SDS011;5854;48.072;16.286;2022-11-03T16:08:24;12.57;;;5.60;;
11596;SDS011;5854;48.072;16.286;2022-11-03T16:10:52;7.10;;;5.57;;
11596;SDS011;5854;48.072;16.286;2022-11-03T16:13:20;13.77;;;5.78;;
11596;SDS011;5854;48.072;16.286;2022-11-03T16:15:47;11.48;;;6.00;;
11596;SDS011;5854;48.072;16.286;2022-11-03T16:18:14;8.25;;;5.68;;
11596;SDS011;5854;48.072;16.286;2022-11-03T16:20:41;11.05;;;6.38;;
11596;SDS011;5854;48.072;16.286;2022-11-03T16:23:08;8.80;;;6.43;;
11596;SDS011;5854;48.072;16.286;2022-11-03T16:25:35;14.45;;;6.22;;
11596;SDS011;5854;48.072;16.286;2022-11-03T16:28:03;7.15;;;6.18;;
11596;SDS011;5854;48.072;16.286;2022-11-03T16:30:30;8.57;;;6.05;;
11596;SDS011;5854;48.072;16.286;2022-11-03T16:32:59;10.48;;;6.72;;
11596;SDS011;5854;48.072;16.286;2022-11-03T16:35:26;18.10;;;8.07;;
11596;SDS011;5854;48.072;16.286;2022-11-03T16:37:53;10.20;;;7.25;;
11596;SDS011;5854;48.072;16.286;2022-11-03T16:40:20;11.23;;;7.28;;
11596;SDS011;5854;48.072;16.286;2022-11-03T16:42:49;8.30;;;6.30;;
11596;SDS011;5854;48.072;16.286;2022-11-03T16:45:18;11.77;;;7.65;;
11596;SDS011;5854;48.072;16.286;2022-11-03T16:47:47;11.98;;;7.43;;
11596;SDS011;5854;48.072;16.286;2022-11-03T16:50:16;15.32;;;7.00;;
11596;SDS011;5854;48.072;16.286;2022-11-03T16:52:45;9.65;;;7.05;;
11596;SDS011;5854;48.072;16.286;2022-11-03T16:55:15;12.40;;;7.60;;
11596;SDS011;5854;48.072;16.286;2022-11-03T16:57:44;9.35;;;7.40;;
11596;SDS011;5854;48.072;16.286;2022-11-03T17:00:12;11.20;;;7.40;;
11596;SDS011;5854;48.072;16.286;2022-11-03T17:02:43;14.25;;;6.82;;
11596;SDS011;5854;48.072;16.286;2022-11-03T17:05:11;12.10;;;6.82;;
11596;SDS011;5854;48.072;16.286;2022-11-03T17:07:41;8.20;;;6.75;;
11596;SDS011;5854;48.072;16.286;2022-11-03T17:10:09;10.10;;;6.93;;
11596;SDS011;5854;48.072;16.286;2022-11-03T17:12:37;13.43;;;6.90;;
11596;SDS011;5854;48.072;16.286;2022-11-03T17:15:05;9.85;;;7.03;;
11596;SDS011;5854;48.072;16.286;2022-11-03T17:17:33;13.20;;;6.93;;
11596;SDS011;5854;48.072;16.286;2022-11-03T17:20:01;14.15;;;7.13;;
11596;SDS011;5854;48.072;16.286;2022-11-03T17:22:29;9.13;;;7.22;;
11596;SDS011;5854;48.072;16.286;2022-11-03T17:24:56;10.57;;;6.35;;
11596;SDS011;5854;48.072;16.286;2022-11-03T17:27:24;13.35;;;8.52;;
11596;SDS011;5854;48.072;16.286;2022-11-03T17:29:54;12.00;;;7.90;;
11596;SDS011;5854;48.072;16.286;2022-11-03T17:35:02;15.10;;;7.88;;
11596;SDS011;5854;48.072;16.286;2022-11-03T17:37:34;11.75;;;5.93;;
11596;SDS011;5854;48.072;16.286;2022-11-03T17:40:01;9.27;;;7.50;;
11596;SDS011;5854;48.072;16.286;2022-11-03T17:42:29;8.10;;;5.35;;
11596;SDS011;5854;48.072;16.286;2022-11-03T17:47:30;14.13;;;7.25;;
11596;SDS011;5854;48.072;16.286;2022-11-03T17:55:28;8.55;;;6.97;;
11596;SDS011;5854;48.072;16.286;2022-11-03T17:58:00;11.10;;;6.43;;
11596;SDS011;5854;48.072;16.286;2022-11-03T18:00:49;9.55;;;6.43;;
11596;SDS011;5854;48.072;16.286;2022-11-03T18:08:46;10.48;;;6.70;;
11596;SDS011;5854;48.072;16.286;2022-11-03T18:13:51;14.32;;;7.20;;
11596;SDS011;5854;48.072;16.286;2022-11-03T18:16:18;11.10;;;7.13;;
11596;SDS011;5854;48.072;16.286;2022-11-03T18:18:46;13.38;;;6.90;;
11596;SDS011;5854;48.072;16.286;2022-11-03T18:21:13;7.75;;;6.47;;
11596;SDS011;5854;48.072;16.286;2022-11-03T18:23:45;14.38;;;6.20;;
11596;SDS011;5854;48.072;16.286;2022-11-03T18:29:03;10.88;;;7.20;;
11596;SDS011;5854;48.072;16.286;2022-11-03T18:31:51;11.93;;;6.57;;
11596;SDS011;5854;48.072;16.286;2022-11-03T18:37:12;22.80;;;6.60;;
11596;SDS011;5854;48.072;16.286;2022-11-03T18:42:16;10.00;;;6.32;;
11596;SDS011;5854;48.072;16.286;2022-11-03T18:47:18;13.55;;;6.00;;
11596;SDS011;5854;48.072;16.286;2022-11-03T18:52:27;10.70;;;5.90;;
11596;SDS011;5854;48.072;16.286;2022-11-03T18:55:21;11.65;;;5.68;;
11596;SDS011;5854;48.072;16.286;2022-11-03T19:00:25;14.68;;;5.10;;
11596;SDS011;5854;48.072;16.286;2022-11-03T19:20:53;13.43;;;6.53;;
11596;SDS011;5854;48.072;16.286;2022-11-03T19:23:22;7.80;;;5.70;;
11596;SDS011;5854;48.072;16.286;2022-11-03T19:25:50;12.88;;;6.18;;
11596;SDS011;5854;48.072;16.286;2022-11-03T19:28:35;8.38;;;5.82;;
11596;SDS011;5854;48.072;16.286;2022-11-03T19:36:31;5.90;;;5.40;;
11596;SDS011;5854;48.072;16.286;2022-11-03T19:39:06;7.15;;;5.35;;
11596;SDS011;5854;48.072;16.286;2022-11-03T20:25:26;18.83;;;10.35;;
11596;SDS011;5854;48.072;16.286;2022-11-03T20:33:32;15.15;;;11.82;;
11596;SDS011;5854;48.072;16.286;2022-11-03T20:38:43;19.80;;;14.27;;
11596;SDS011;5854;48.072;16.286;2022-11-03T20:49:51;25.92;;;16.73;;
11596;SDS011;5854;48.072;16.286;2022-11-03T20:52:21;30.15;;;17.20;;
11596;SDS011;5854;48.072;16.286;2022-11-03T20:54:55;29.48;;;18.30;;
11596;SDS011;5854;48.072;16.286;2022-11-03T20:57:22;31.00;;;17.85;;
11596;SDS011;5854;48.072;16.286;2022-11-03T20:59:50;29.10;;;17.17;;
11596;SDS011;5854;48.072;16.286;2022-11-03T21:02:18;31.25;;;18.80;;
11596;SDS011;5854;48.072;16.286;2022-11-03T21:04:46;27.58;;;18.60;;
11596;SDS011;5854;48.072;16.286;2022-11-03T21:07:13;24.90;;;16.55;;
11596;SDS011;5854;48.072;16.286;2022-11-03T21:09:41;24.00;;;16.30;;
11596;SDS011;5854;48.072;16.286;2022-11-03T21:12:10;22.02;;;14.77;;
11596;SDS011;5854;48.072;16.286;2022-11-03T21:14:39;24.07;;;15.17;;
11596;SDS011;5854;48.072;16.286;2022-11-03T21:17:30;23.90;;;15.05;;
11596;SDS011;5854;48.072;16.286;2022-11-03T21:20:15;25.38;;;14.75;;
11596;SDS011;5854;48.072;16.286;2022-11-03T21:22:42;22.52;;;16.63;;
11596;SDS011;5854;48.072;16.286;2022-11-03T21:25:11;30.67;;;19.75;;
11596;SDS011;5854;48.072;16.286;2022-11-03T21:27:40;35.53;;;17.85;;
11596;SDS011;5854;48.072;16.286;2022-11-03T21:30:09;22.77;;;14.35;;
11596;SDS011;5854;48.072;16.286;2022-11-03T21:32:40;23.60;;;15.63;;
11596;SDS011;5854;48.072;16.286;2022-11-03T21:35:08;36.53;;;20.70;;
11596;SDS011;5854;48.072;16.286;2022-11-03T21:37:40;36.63;;;19.27;;
11596;SDS011;5854;48.072;16.286;2022-11-03T21:40:07;26.92;;;17.95;;
11596;SDS011;5854;48.072;16.286;2022-11-03T21:42:35;26.40;;;15.48;;
11596;SDS011;5854;48.072;16.286;2022-11-03T21:45:20;25.17;;;16.33;;
11596;SDS011;5854;48.072;16.286;2022-11-03T21:47:49;30.90;;;17.20;;
11596;SDS011;5854;48.072;16.286;2022-11-03T21:50:30;28.00;;;13.43;;
11596;SDS011;5854;48.072;16.286;2022-11-03T21:52:57;27.92;;;17.08;;
11596;SDS011;5854;48.072;16.286;2022-11-03T21:55:24;20.48;;;12.50;;
11596;SDS011;5854;48.072;16.286;2022-11-03T21:57:52;31.23;;;20.40;;
11596;SDS011;5854;48.072;16.286;2022-11-03T22:00:21;30.95;;;17.33;;
11596;SDS011;5854;48.072;16.286;2022-11-03T22:02:50;30.05;;;18.67;;
11596;SDS011;5854;48.072;16.286;2022-11-03T22:05:17;32.50;;;19.08;;
11596;SDS011;5854;48.072;16.286;2022-11-03T22:07:46;31.83;;;17.67;;
11596;SDS011;5854;48.072;16.286;2022-11-03T22:10:14;30.10;;;18.95;;
11596;SDS011;5854;48.072;16.286;2022-11-03T22:12:41;33.25;;;18.52;;
11596;SDS011;5854;48.072;16.286;2022-11-03T22:15:11;29.58;;;18.30;;
11596;SDS011;5854;48.072;16.286;2022-11-03T22:18:00;30.08;;;18.77;;
11596;SDS011;5854;48.072;16.286;2022-11-03T22:20:27;32.53;;;19.92;;
11596;SDS011;5854;48.072;16.286;2022-11-03T22:23:08;33.00;;;20.35;;
11596;SDS011;5854;48.072;16.286;2022-11-03T22:25:53;25.35;;;15.60;;
11596;SDS011;5854;48.072;16.286;2022-11-03T22:28:38;31.92;;;19.05;;
11596;SDS011;5854;48.072;16.286;2022-11-03T22:31:05;27.00;;;18.10;;
11596;SDS011;5854;48.072;16.286;2022-11-03T22:33:52;29.88;;;20.02;;
11596;SDS011;5854;48.072;16.286;2022-11-03T22:36:37;32.20;;;19.65;;
11596;SDS011;5854;48.072;16.286;2022-11-03T22:39:04;26.95;;;18.50;;
11596;SDS011;5854;48.072;16.286;2022-11-03T22:41:49;33.25;;;18.83;;
11596;SDS011;5854;48.072;16.286;2022-11-03T22:44:33;28.02;;;18.42;;
11596;SDS011;5854;48.072;16.286;2022-11-03T22:47:18;27.80;;;17.05;;
11596;SDS011;5854;48.072;16.286;2022-11-03T22:49:47;32.78;;;20.15;;
11596;SDS011;5854;48.072;16.286;2022-11-03T22:52:16;30.67;;;18.20;;
11596;SDS011;5854;48.072;16.286;2022-11-03T22:54:43;31.92;;;20.23;;
11596;SDS011;5854;48.072;16.286;2022-11-03T22:57:10;37.60;;;20.95;;
11596;SDS011;5854;48.072;16.286;2022-11-03T22:59:38;33.03;;;20.25;;
11596;SDS011;5854;48.072;16.286;2022-11-03T23:02:05;32.45;;;19.17;;
11596;SDS011;5854;48.072;16.286;2022-11-03T23:04:32;31.58;;;19.05;;
11596;SDS011;5854;48.072;16.286;2022-11-03T23:07:00;31.92;;;19.52;;
11596;SDS011;5854;48.072;16.286;2022-11-03T23:09:28;37.95;;;20.92;;
11596;SDS011;5854;48.072;16.286;2022-11-03T23:11:56;33.00;;;21.75;;
11596;SDS011;5854;48.072;16.286;2022-11-03T23:14:23;31.88;;;21.48;;
11596;SDS011;5854;48.072;16.286;2022-11-03T23:17:11;34.15;;;19.75;;
11596;SDS011;5854;48.072;16.286;2022-11-03T23:19:38;35.38;;;22.27;;
11596;SDS011;5854;48.072;16.286;2022-11-03T23:22:24;31.95;;;22.17;;
11596;SDS011;5854;48.072;16.286;2022-11-03T23:24:53;32.15;;;20.50;;
11596;SDS011;5854;48.072;16.286;2022-11-03T23:27:25;33.88;;;20.95;;
11596;SDS011;5854;48.072;16.286;2022-11-03T23:29:52;33.63;;;21.33;;
11596;SDS011;5854;48.072;16.286;2022-11-03T23:32:19;27.38;;;17.73;;
11596;SDS011;5854;48.072;16.286;2022-11-03T23:34:46;26.17;;;19.58;;
11596;SDS011;5854;48.072;16.286;2022-11-03T23:37:14;31.48;;;19.90;;
11596;SDS011;5854;48.072;16.286;2022-11-03T23:39:42;37.35;;;21.58;;
11596;SDS011;5854;48.072;16.286;2022-11-03T23:42:10;30.65;;;19.10;;
11596;SDS011;5854;48.072;16.286;2022-11-03T23:44:37;34.33;;;21.42;;
11596;SDS011;5854;48.072;16.286;2022-11-03T23:47:27;35.55;;;21.98;;
11596;SDS011;5854;48.072;16.286;2022-11-03T23:50:11;31.02;;;21.08;;
11596;SDS011;5854;48.072;16.286;2022-11-03T23:52:39;35.70;;;21.98;;